Time,TemperatureF,DewpointF,PressureIn,WindDirection,WindDirectionDegrees,WindSpeedMPH,WindSpeedGustMPH,Humidity,HourlyPrecipIn,Conditions,Clouds,dailyrainin,SoftwareType,DateUTC
2013-01-20 00:01:00,31.2,28.6,30.32,SSE,150,0.0,0.0,90,0.00,,,0.00,Wunderground v.1.15,2013-01-20 05:01:00,
2013-01-20 00:04:00,31.1,28.5,30.32,SSE,150,0.0,0.0,90,0.00,,,0.00,Wunderground v.1.15,2013-01-20 05:04:00,
2013-01-20 00:07:00,31.0,28.4,30.32,SSE,150,0.0,0.0,90,0.00,,,0.00,Wunderground v.1.15,2013-01-20 05:07:00,
2013-01-20 00:08:00,31.0,28.4,30.31,SSE,150,0.0,0.0,90,0.00,,,0.00,Wunderground v.1.15,2013-01-20 05:08:00,
2013-01-20 00:14:00,30.9,28.3,30.31,SSE,150,0.0,0.0,90,0.00,,,0.00,Wunderground v.1.15,2013-01-20 05:14:00,
2013-01-20 00:19:00,30.8,28.5,30.31,SSE,150,0.0,0.0,91,0.00,,,0.00,Wunderground v.1.15,2013-01-20 05:19:00,
2013-01-20 00:25:00,30.6,28.3,30.31,SSE,150,0.0,0.0,91,0.00,,,0.00,Wunderground v.1.15,2013-01-20 05:25:00,
2013-01-20 00:31:00,30.5,28.2,30.31,SSE,150,0.0,0.0,91,0.00,,,0.00,Wunderground v.1.15,2013-01-20 05:31:00,
2013-01-20 00:37:00,30.5,28.2,30.31,SSE,150,0.0,0.0,91,0.00,,,0.00,Wunderground v.1.15,2013-01-20 05:37:00,
2013-01-20 00:43:00,30.3,28.3,30.31,SSE,150,0.0,0.0,92,0.00,,,0.00,Wunderground v.1.15,2013-01-20 05:43:00,
2013-01-20 00:49:00,30.0,28.0,30.31,SSE,150,0.0,0.0,92,0.00,,,0.00,Wunderground v.1.15,2013-01-20 05:49:00,
2013-01-20 00:54:00,29.9,27.9,30.31,SSE,150,0.0,0.0,92,0.00,,,0.00,Wunderground v.1.15,2013-01-20 05:54:00,
2013-01-20 00:59:00,29.7,27.9,30.31,SSE,150,0.0,0.0,93,0.00,,,0.00,Wunderground v.1.15,2013-01-20 05:59:00,
2013-01-20 01:05:00,29.5,27.7,30.31,SSE,150,0.0,0.0,93,0.00,,,0.00,Wunderground v.1.15,2013-01-20 06:05:00,
2013-01-20 01:10:00,29.4,27.6,30.30,SSE,150,0.0,0.0,93,0.00,,,0.00,Wunderground v.1.15,2013-01-20 06:10:00,
2013-01-20 01:15:00,29.3,27.5,30.30,SSE,150,0.0,0.0,93,0.00,,,0.00,Wunderground v.1.15,2013-01-20 06:15:00,
2013-01-20 01:20:00,29.2,27.7,30.30,SSE,150,0.0,0.0,94,0.00,,,0.00,Wunderground v.1.15,2013-01-20 06:20:00,
2013-01-20 01:25:00,29.1,27.6,30.30,SSE,150,0.0,0.0,94,0.00,,,0.00,Wunderground v.1.15,2013-01-20 06:25:00,
2013-01-20 01:31:00,29.0,27.5,30.30,SSE,150,0.0,0.0,94,0.00,,,0.00,Wunderground v.1.15,2013-01-20 06:31:00,
2013-01-20 01:37:00,28.9,27.4,30.30,SSE,150,0.0,0.0,94,0.00,,,0.00,Wunderground v.1.15,2013-01-20 06:37:00,
2013-01-20 01:43:00,28.9,27.4,30.30,SSE,150,0.0,0.0,94,0.00,,,0.00,Wunderground v.1.15,2013-01-20 06:43:00,
2013-01-20 01:48:00,28.8,27.3,30.30,SSE,150,0.0,0.0,94,0.00,,,0.00,Wunderground v.1.15,2013-01-20 06:48:00,
2013-01-20 01:54:00,28.8,27.3,30.30,SSE,150,0.0,0.0,94,0.00,,,0.00,Wunderground v.1.15,2013-01-20 06:54:00,
2013-01-20 02:00:00,28.7,27.2,30.30,SSE,150,0.0,0.0,94,0.00,,,0.00,Wunderground v.1.15,2013-01-20 07:00:00,
2013-01-20 02:05:00,28.7,27.2,30.30,SSE,150,0.0,0.0,94,0.00,,,0.00,Wunderground v.1.15,2013-01-20 07:05:00,
2013-01-20 02:10:00,28.6,27.1,30.30,SSE,150,0.0,0.0,94,0.00,,,0.00,Wunderground v.1.15,2013-01-20 07:10:00,
2013-01-20 02:15:00,28.6,27.4,30.30,SSE,150,1.0,2.0,95,0.00,,,0.00,Wunderground v.1.15,2013-01-20 07:15:00,
2013-01-20 02:20:00,28.5,27.3,30.30,SSE,150,0.0,0.0,95,0.00,,,0.00,Wunderground v.1.15,2013-01-20 07:20:00,
2013-01-20 02:25:00,28.4,27.2,30.30,SSE,150,0.0,1.0,95,0.00,,,0.00,Wunderground v.1.15,2013-01-20 07:25:00,
2013-01-20 02:30:00,28.4,27.2,30.30,SSE,150,0.0,0.0,95,0.00,,,0.00,Wunderground v.1.15,2013-01-20 07:30:00,
2013-01-20 02:35:00,28.3,27.1,30.30,SSE,150,0.0,0.0,95,0.00,,,0.00,Wunderground v.1.15,2013-01-20 07:35:00,
2013-01-20 02:41:00,28.2,27.2,30.30,SSE,150,0.0,0.0,96,0.00,,,0.00,Wunderground v.1.15,2013-01-20 07:41:00,
2013-01-20 02:46:00,28.2,27.2,30.30,SSE,150,0.0,0.0,96,0.00,,,0.00,Wunderground v.1.15,2013-01-20 07:46:00,
2013-01-20 02:51:00,28.1,27.1,30.30,SSE,150,0.0,0.0,96,0.00,,,0.00,Wunderground v.1.15,2013-01-20 07:51:00,
2013-01-20 02:56:00,28.1,27.1,30.30,SSE,150,0.0,0.0,96,0.00,,,0.00,Wunderground v.1.15,2013-01-20 07:56:00,
2013-01-20 03:01:00,28.1,27.1,30.30,SSE,150,0.0,0.0,96,0.00,,,0.00,Wunderground v.1.15,2013-01-20 08:01:00,
2013-01-20 03:06:00,28.1,27.1,30.29,SSE,150,0.0,0.0,96,0.00,,,0.00,Wunderground v.1.15,2013-01-20 08:06:00,
2013-01-20 03:11:00,28.1,27.1,30.30,SSE,150,0.0,0.0,96,0.00,,,0.00,Wunderground v.1.15,2013-01-20 08:11:00,
2013-01-20 03:16:00,28.1,27.1,30.30,SSE,150,0.0,0.0,96,0.00,,,0.00,Wunderground v.1.15,2013-01-20 08:16:00,
2013-01-20 03:21:00,28.1,27.4,30.30,SSE,150,0.0,1.0,97,0.00,,,0.00,Wunderground v.1.15,2013-01-20 08:21:00,
2013-01-20 03:26:00,28.1,27.4,30.30,SSE,150,0.0,1.0,97,0.00,,,0.00,Wunderground v.1.15,2013-01-20 08:26:00,
2013-01-20 03:31:00,28.1,27.4,30.30,SSE,150,0.0,0.0,97,0.00,,,0.00,Wunderground v.1.15,2013-01-20 08:31:00,
2013-01-20 03:36:00,28.1,27.4,30.30,SSE,150,0.0,1.0,97,0.00,,,0.00,Wunderground v.1.15,2013-01-20 08:36:00,
2013-01-20 03:41:00,28.1,27.4,30.29,SSE,150,0.0,0.0,97,0.00,,,0.00,Wunderground v.1.15,2013-01-20 08:41:00,
2013-01-20 03:46:00,28.1,27.4,30.29,SSE,150,0.0,0.0,97,0.00,,,0.00,Wunderground v.1.15,2013-01-20 08:46:00,
2013-01-20 03:51:00,28.1,27.4,30.29,SSE,150,0.0,0.0,97,0.00,,,0.00,Wunderground v.1.15,2013-01-20 08:51:00,
2013-01-20 03:56:00,28.0,27.3,30.29,SSE,150,0.0,0.0,97,0.00,,,0.00,Wunderground v.1.15,2013-01-20 08:56:00,
2013-01-20 04:01:00,28.1,27.4,30.29,SSE,150,0.0,0.0,97,0.00,,,0.00,Wunderground v.1.15,2013-01-20 09:01:00,
2013-01-20 04:06:00,28.3,27.6,30.28,SSE,150,0.0,0.0,97,0.00,,,0.00,Wunderground v.1.15,2013-01-20 09:06:00,
2013-01-20 04:11:00,28.6,27.9,30.29,SSE,150,0.0,0.0,97,0.00,,,0.00,Wunderground v.1.15,2013-01-20 09:11:00,
2013-01-20 04:16:00,29.0,28.3,30.29,SSE,150,0.0,1.0,97,0.00,,,0.00,Wunderground v.1.15,2013-01-20 09:16:00,
2013-01-20 04:21:00,29.3,28.6,30.29,SSE,150,0.0,0.0,97,0.00,,,0.00,Wunderground v.1.15,2013-01-20 09:21:00,
2013-01-20 04:26:00,29.7,28.7,30.29,SSE,150,0.0,1.0,96,0.00,,,0.00,Wunderground v.1.15,2013-01-20 09:26:00,
2013-01-20 04:31:00,30.5,29.0,30.29,SSE,150,0.0,0.0,94,0.00,,,0.00,Wunderground v.1.15,2013-01-20 09:31:00,
2013-01-20 04:36:00,31.4,29.3,30.29,SSE,150,0.0,1.0,92,0.00,,,0.00,Wunderground v.1.15,2013-01-20 09:36:00,
2013-01-20 04:41:00,32.1,29.2,30.29,SSE,150,0.0,1.0,89,0.00,,,0.00,Wunderground v.1.15,2013-01-20 09:41:00,
2013-01-20 04:46:00,32.9,29.5,30.29,SSE,150,0.0,1.0,87,0.00,,,0.00,Wunderground v.1.15,2013-01-20 09:46:00,
2013-01-20 04:51:00,33.6,29.6,30.29,SSE,150,0.0,1.0,85,0.00,,,0.00,Wunderground v.1.15,2013-01-20 09:51:00,
2013-01-20 04:56:00,34.2,29.9,30.29,SSE,150,0.0,1.0,84,0.00,,,0.00,Wunderground v.1.15,2013-01-20 09:56:00,
2013-01-20 05:01:00,34.5,29.6,30.29,SSE,150,0.0,1.0,82,0.00,,,0.00,Wunderground v.1.15,2013-01-20 10:01:00,
2013-01-20 05:06:00,34.7,29.5,30.29,SSE,150,0.0,1.0,81,0.00,,,0.00,Wunderground v.1.15,2013-01-20 10:06:00,
2013-01-20 05:11:00,34.9,29.7,30.29,SSE,150,0.0,1.0,81,0.00,,,0.00,Wunderground v.1.15,2013-01-20 10:11:00,
2013-01-20 05:16:00,34.8,29.6,30.28,SSE,150,0.0,1.0,81,0.00,,,0.00,Wunderground v.1.15,2013-01-20 10:16:00,
2013-01-20 05:21:00,34.6,29.4,30.28,SSE,150,0.0,0.0,81,0.00,,,0.00,Wunderground v.1.15,2013-01-20 10:21:00,
2013-01-20 05:26:00,34.2,29.3,30.28,SSE,150,0.0,1.0,82,0.00,,,0.00,Wunderground v.1.15,2013-01-20 10:26:00,
2013-01-20 05:31:00,34.2,29.3,30.28,SSE,150,0.0,0.0,82,0.00,,,0.00,Wunderground v.1.15,2013-01-20 10:31:00,
2013-01-20 05:36:00,33.9,28.7,30.28,ESE,103,0.0,2.0,81,0.00,,,0.00,Wunderground v.1.15,2013-01-20 10:36:00,
2013-01-20 05:42:00,33.8,28.6,30.27,NE,45,0.0,2.0,81,0.00,,,0.00,Wunderground v.1.15,2013-01-20 10:42:00,
2013-01-20 05:47:00,33.9,28.7,30.27,NE,55,1.0,3.0,81,0.00,,,0.00,Wunderground v.1.15,2013-01-20 10:47:00,
2013-01-20 05:52:00,34.1,28.6,30.27,NNE,21,2.0,4.0,80,0.00,,,0.00,Wunderground v.1.15,2013-01-20 10:52:00,
2013-01-20 05:57:00,34.2,28.1,30.28,NNE,23,0.0,4.0,78,0.00,,,0.00,Wunderground v.1.15,2013-01-20 10:57:00,
2013-01-20 06:02:00,34.6,28.4,30.28,North,355,1.0,3.0,78,0.00,,,0.00,Wunderground v.1.15,2013-01-20 11:02:00,
2013-01-20 06:07:00,34.8,28.3,30.27,North,360,1.0,3.0,77,0.00,,,0.00,Wunderground v.1.15,2013-01-20 11:07:00,
2013-01-20 06:12:00,34.9,28.1,30.27,North,360,0.0,1.0,76,0.00,,,0.00,Wunderground v.1.15,2013-01-20 11:12:00,
2013-01-20 06:17:00,34.9,28.1,30.27,NNE,24,0.0,2.0,76,0.00,,,0.00,Wunderground v.1.15,2013-01-20 11:17:00,
2013-01-20 06:22:00,34.8,28.0,30.28,NNE,32,0.0,1.0,76,0.00,,,0.00,Wunderground v.1.15,2013-01-20 11:22:00,
2013-01-20 06:27:00,34.8,28.0,30.28,NNE,33,0.0,3.0,76,0.00,,,0.00,Wunderground v.1.15,2013-01-20 11:27:00,
2013-01-20 06:32:00,34.6,27.8,30.27,NNE,33,0.0,2.0,76,0.00,,,0.00,Wunderground v.1.15,2013-01-20 11:32:00,
2013-01-20 06:37:00,34.6,27.8,30.28,NNE,33,0.0,2.0,76,0.00,,,0.00,Wunderground v.1.15,2013-01-20 11:37:00,
2013-01-20 06:42:00,34.5,27.7,30.27,NNE,33,0.0,1.0,76,0.00,,,0.00,Wunderground v.1.15,2013-01-20 11:42:00,
2013-01-20 06:47:00,34.8,27.7,30.28,NNE,33,0.0,1.0,75,0.00,,,0.00,Wunderground v.1.15,2013-01-20 11:47:00,
2013-01-20 06:52:00,35.0,27.9,30.28,NNE,33,0.0,1.0,75,0.00,,,0.00,Wunderground v.1.15,2013-01-20 11:52:00,
2013-01-20 06:57:00,35.1,28.0,30.28,NNE,33,0.0,2.0,75,0.00,,,0.00,Wunderground v.1.15,2013-01-20 11:57:00,
2013-01-20 07:02:00,35.0,27.9,30.27,NNE,33,0.0,1.0,75,0.00,,,0.00,Wunderground v.1.15,2013-01-20 12:02:00,
2013-01-20 07:07:00,34.9,27.8,30.28,NNE,33,0.0,3.0,75,0.00,,,0.00,Wunderground v.1.15,2013-01-20 12:07:00,
2013-01-20 07:12:00,34.9,27.8,30.28,NE,38,0.0,3.0,75,0.00,,,0.00,Wunderground v.1.15,2013-01-20 12:12:00,
2013-01-20 07:17:00,35.0,27.9,30.28,NE,38,1.0,3.0,75,0.00,,,0.00,Wunderground v.1.15,2013-01-20 12:17:00,
2013-01-20 07:22:00,35.0,27.9,30.28,NNE,30,0.0,2.0,75,0.00,,,0.00,Wunderground v.1.15,2013-01-20 12:22:00,
2013-01-20 07:27:00,35.1,28.3,30.28,NNE,30,1.0,2.0,76,0.00,,,0.00,Wunderground v.1.15,2013-01-20 12:27:00,
2013-01-20 07:32:00,35.0,28.2,30.28,NNE,30,0.0,1.0,76,0.00,,,0.00,Wunderground v.1.15,2013-01-20 12:32:00,
2013-01-20 07:37:00,35.0,28.2,30.28,NNE,30,0.0,1.0,76,0.00,,,0.00,Wunderground v.1.15,2013-01-20 12:37:00,
2013-01-20 07:42:00,34.8,28.3,30.29,NNE,30,0.0,0.0,77,0.00,,,0.00,Wunderground v.1.15,2013-01-20 12:42:00,
2013-01-20 07:47:00,34.5,28.0,30.29,NNE,30,0.0,1.0,77,0.00,,,0.00,Wunderground v.1.15,2013-01-20 12:47:00,
2013-01-20 07:52:00,34.3,27.8,30.29,NNE,30,1.0,1.0,77,0.00,,,0.00,Wunderground v.1.15,2013-01-20 12:52:00,
2013-01-20 07:57:00,34.2,28.1,30.29,NNE,30,1.0,1.0,78,0.00,,,0.00,Wunderground v.1.15,2013-01-20 12:57:00,
2013-01-20 08:02:00,34.2,28.4,30.29,NNE,30,0.0,1.0,79,0.00,,,0.00,Wunderground v.1.15,2013-01-20 13:02:00,
2013-01-20 08:07:00,34.2,28.1,30.29,NNE,30,0.0,1.0,78,0.00,,,0.00,Wunderground v.1.15,2013-01-20 13:07:00,
2013-01-20 08:12:00,34.2,28.1,30.29,NNE,30,0.0,1.0,78,0.00,,,0.00,Wunderground v.1.15,2013-01-20 13:12:00,
2013-01-20 08:17:00,34.2,28.1,30.29,NNE,30,0.0,1.0,78,0.00,,,0.00,Wunderground v.1.15,2013-01-20 13:17:00,
2013-01-20 08:22:00,34.7,28.5,30.29,NNE,30,0.0,0.0,78,0.00,,,0.00,Wunderground v.1.15,2013-01-20 13:22:00,
2013-01-20 08:27:00,35.0,29.1,30.29,NNE,30,1.0,1.0,79,0.00,,,0.00,Wunderground v.1.15,2013-01-20 13:27:00,
2013-01-20 08:32:00,35.4,29.2,30.29,NNE,30,0.0,1.0,78,0.00,,,0.00,Wunderground v.1.15,2013-01-20 13:32:00,
2013-01-20 08:37:00,36.1,30.2,30.29,NNE,30,0.0,1.0,79,0.00,,,0.00,Wunderground v.1.15,2013-01-20 13:37:00,
2013-01-20 08:42:00,36.5,30.0,30.29,NNE,28,2.0,3.0,77,0.00,,,0.00,Wunderground v.1.15,2013-01-20 13:42:00,
2013-01-20 08:47:00,37.0,30.1,30.29,NNE,28,0.0,3.0,76,0.00,,,0.00,Wunderground v.1.15,2013-01-20 13:47:00,
2013-01-20 08:52:00,37.5,30.6,30.29,NNE,28,0.0,1.0,76,0.00,,,0.00,Wunderground v.1.15,2013-01-20 13:52:00,
2013-01-20 08:57:00,37.8,30.6,30.29,NNE,28,0.0,2.0,75,0.00,,,0.00,Wunderground v.1.15,2013-01-20 13:57:00,
2013-01-20 09:02:00,38.2,31.0,30.29,NNE,28,0.0,2.0,75,0.00,,,0.00,Wunderground v.1.15,2013-01-20 14:02:00,
2013-01-20 09:07:00,38.6,31.0,30.29,NNE,29,0.0,2.0,74,0.00,,,0.00,Wunderground v.1.15,2013-01-20 14:07:00,
2013-01-20 09:12:00,39.1,31.2,30.29,NE,49,1.0,3.0,73,0.00,,,0.00,Wunderground v.1.15,2013-01-20 14:12:00,
2013-01-20 09:17:00,39.4,31.5,30.29,NE,49,0.0,3.0,73,0.00,,,0.00,Wunderground v.1.15,2013-01-20 14:17:00,
2013-01-20 09:22:00,39.8,32.2,30.29,NNW,348,0.0,3.0,74,0.00,,,0.00,Wunderground v.1.15,2013-01-20 14:22:00,
2013-01-20 09:27:00,40.2,32.2,30.29,NNW,348,0.0,3.0,73,0.00,,,0.00,Wunderground v.1.15,2013-01-20 14:27:00,
2013-01-20 09:32:00,40.6,32.6,30.30,NNE,22,1.0,1.0,73,0.00,,,0.00,Wunderground v.1.15,2013-01-20 14:32:00,
2013-01-20 09:38:00,41.0,32.7,30.30,NE,50,3.0,11.0,72,0.00,,,0.00,Wunderground v.1.15,2013-01-20 14:38:00,
2013-01-20 09:43:00,41.4,33.0,30.30,NNE,33,1.0,3.0,72,0.00,,,0.00,Wunderground v.1.15,2013-01-20 14:43:00,
2013-01-20 09:48:00,41.9,33.2,30.29,North,9,0.0,5.0,71,0.00,,,0.00,Wunderground v.1.15,2013-01-20 14:48:00,
2013-01-20 09:53:00,42.2,33.8,30.29,North,9,1.0,1.0,72,0.00,,,0.00,Wunderground v.1.15,2013-01-20 14:53:00,
2013-01-20 09:58:00,42.5,33.4,30.29,NE,46,2.0,10.0,70,0.00,,,0.00,Wunderground v.1.15,2013-01-20 14:58:00,
2013-01-20 10:03:00,42.9,34.1,30.29,NE,42,0.0,2.0,71,0.00,,,0.00,Wunderground v.1.15,2013-01-20 15:03:00,
2013-01-20 10:08:00,43.2,34.4,30.30,South,169,0.0,2.0,71,0.00,,,0.00,Wunderground v.1.15,2013-01-20 15:08:00,
2013-01-20 10:13:00,43.6,34.8,30.30,NE,40,3.0,5.0,71,0.00,,,0.00,Wunderground v.1.15,2013-01-20 15:13:00,
2013-01-20 10:18:00,44.1,35.3,30.30,North,360,1.0,6.0,71,0.00,,,0.00,Wunderground v.1.15,2013-01-20 15:18:00,
2013-01-20 10:23:00,44.5,35.7,30.30,WNW,303,0.0,2.0,71,0.00,,,0.00,Wunderground v.1.15,2013-01-20 15:23:00,
2013-01-20 10:28:00,44.9,35.7,30.30,West,279,2.0,3.0,70,0.00,,,0.00,Wunderground v.1.15,2013-01-20 15:28:00,
2013-01-20 10:33:00,45.3,36.4,30.30,NNE,28,0.0,3.0,71,0.00,,,0.00,Wunderground v.1.15,2013-01-20 15:33:00,
2013-01-20 10:38:00,45.7,36.1,30.30,NNE,32,0.0,3.0,69,0.00,,,0.00,Wunderground v.1.15,2013-01-20 15:38:00,
2013-01-20 10:43:00,46.2,37.0,30.29,NNE,32,1.0,1.0,70,0.00,,,0.00,Wunderground v.1.15,2013-01-20 15:43:00,
2013-01-20 10:48:00,46.6,36.6,30.29,NNE,32,1.0,2.0,68,0.00,,,0.00,Wunderground v.1.15,2013-01-20 15:48:00,
2013-01-20 10:53:00,46.9,36.9,30.29,NNW,340,2.0,3.0,68,0.00,,,0.00,Wunderground v.1.15,2013-01-20 15:53:00,
2013-01-20 10:58:00,47.2,36.8,30.29,NNE,23,0.0,4.0,67,0.00,,,0.00,Wunderground v.1.15,2013-01-20 15:58:00,
2013-01-20 11:03:00,47.5,37.1,30.29,NNE,23,0.0,2.0,67,0.00,,,0.00,Wunderground v.1.15,2013-01-20 16:03:00,
2013-01-20 11:08:00,47.8,37.4,30.29,NNE,18,0.0,2.0,67,0.00,,,0.00,Wunderground v.1.15,2013-01-20 16:08:00,
2013-01-20 11:13:00,48.1,37.3,30.28,NNE,17,0.0,5.0,66,0.00,,,0.00,Wunderground v.1.15,2013-01-20 16:13:00,
2013-01-20 11:18:00,48.4,37.2,30.28,NNE,29,1.0,6.0,65,0.00,,,0.00,Wunderground v.1.15,2013-01-20 16:18:00,
2013-01-20 11:23:00,48.7,37.8,30.28,NW,324,0.0,3.0,66,0.00,,,0.00,Wunderground v.1.15,2013-01-20 16:23:00,
2013-01-20 11:28:00,49.0,37.7,30.28,NW,307,0.0,3.0,65,0.00,,,0.00,Wunderground v.1.15,2013-01-20 16:28:00,
2013-01-20 11:33:00,49.2,37.9,30.27,NW,310,2.0,2.0,65,0.00,,,0.00,Wunderground v.1.15,2013-01-20 16:33:00,
2013-01-20 11:38:00,49.5,38.2,30.27,North,9,1.0,3.0,65,0.00,,,0.00,Wunderground v.1.15,2013-01-20 16:38:00,
2013-01-20 11:43:00,49.9,38.6,30.27,North,355,0.0,1.0,65,0.00,,,0.00,Wunderground v.1.15,2013-01-20 16:43:00,
2013-01-20 11:48:00,50.3,39.0,30.27,NNE,31,2.0,3.0,65,0.00,,,0.00,Wunderground v.1.15,2013-01-20 16:48:00,
2013-01-20 11:53:00,50.7,39.0,30.26,North,355,0.0,3.0,64,0.00,,,0.00,Wunderground v.1.15,2013-01-20 16:53:00,
2013-01-20 11:58:00,51.2,39.4,30.26,North,9,2.0,3.0,64,0.00,,,0.00,Wunderground v.1.15,2013-01-20 16:58:00,
2013-01-20 12:03:00,51.5,39.3,30.26,North,9,0.0,3.0,63,0.00,,,0.00,Wunderground v.1.15,2013-01-20 17:03:00,
2013-01-20 12:08:00,51.6,39.0,30.25,NE,38,1.0,5.0,62,0.00,,,0.00,Wunderground v.1.15,2013-01-20 17:08:00,
2013-01-20 12:13:00,51.4,39.2,30.25,NNE,31,0.0,3.0,63,0.00,,,0.00,Wunderground v.1.15,2013-01-20 17:13:00,
2013-01-20 12:18:00,51.6,39.4,30.25,NE,51,1.0,8.0,63,0.00,,,0.00,Wunderground v.1.15,2013-01-20 17:18:00,
2013-01-20 12:23:00,51.8,39.6,30.24,ENE,61,2.0,6.0,63,0.00,,,0.00,Wunderground v.1.15,2013-01-20 17:23:00,
2013-01-20 12:28:00,52.0,39.4,30.24,ENE,58,1.0,10.0,62,0.00,,,0.00,Wunderground v.1.15,2013-01-20 17:28:00,
2013-01-20 12:33:00,52.1,40.3,30.24,North,355,1.0,7.0,64,0.00,,,0.00,Wunderground v.1.15,2013-01-20 17:33:00,
2013-01-20 12:38:00,52.0,39.0,30.24,NNW,337,1.0,7.0,61,0.00,,,0.00,Wunderground v.1.15,2013-01-20 17:38:00,
2013-01-20 12:43:00,51.7,39.5,30.24,NNE,25,3.0,4.0,63,0.00,,,0.00,Wunderground v.1.15,2013-01-20 17:43:00,
2013-01-20 12:48:00,51.7,39.5,30.24,WSW,252,2.0,4.0,63,0.00,,,0.00,Wunderground v.1.15,2013-01-20 17:48:00,
2013-01-20 12:53:00,51.7,39.1,30.23,SW,236,0.0,3.0,62,0.00,,,0.00,Wunderground v.1.15,2013-01-20 17:53:00,
2013-01-20 12:58:00,51.7,39.1,30.24,WNW,287,0.0,3.0,62,0.00,,,0.00,Wunderground v.1.15,2013-01-20 17:58:00,
2013-01-20 13:03:00,51.8,38.8,30.22,WSW,248,2.0,5.0,61,0.00,,,0.00,Wunderground v.1.15,2013-01-20 18:03:00,
2013-01-20 13:08:00,52.0,39.0,30.23,WNW,288,0.0,5.0,61,0.00,,,0.00,Wunderground v.1.15,2013-01-20 18:08:00,
2013-01-20 13:13:00,52.0,39.0,30.22,NNW,340,2.0,4.0,61,0.00,,,0.00,Wunderground v.1.15,2013-01-20 18:13:00,
2013-01-20 13:18:00,52.1,39.1,30.22,WSW,246,1.0,4.0,61,0.00,,,0.00,Wunderground v.1.15,2013-01-20 18:18:00,
2013-01-20 13:23:00,52.0,39.8,30.22,NW,310,2.0,4.0,63,0.00,,,0.00,Wunderground v.1.15,2013-01-20 18:23:00,
2013-01-20 13:29:00,52.1,39.1,30.22,NNE,23,1.0,6.0,61,0.00,,,0.00,Wunderground v.1.15,2013-01-20 18:29:00,
2013-01-20 13:34:00,52.3,39.7,30.22,NNW,327,1.0,5.0,62,0.00,,,0.00,Wunderground v.1.15,2013-01-20 18:34:00,
2013-01-20 13:39:00,52.5,39.4,30.21,WNW,284,1.0,5.0,61,0.00,,,0.00,Wunderground v.1.15,2013-01-20 18:39:00,
2013-01-20 13:44:00,52.6,39.1,30.21,WSW,255,0.0,3.0,60,0.00,,,0.00,Wunderground v.1.15,2013-01-20 18:44:00,
2013-01-20 13:49:00,52.6,38.7,30.21,WNW,300,2.0,3.0,59,0.00,,,0.00,Wunderground v.1.15,2013-01-20 18:49:00,
2013-01-20 13:54:00,52.6,39.1,30.21,WSW,250,0.0,3.0,60,0.00,,,0.00,Wunderground v.1.15,2013-01-20 18:54:00,
2013-01-20 13:59:00,52.8,39.3,30.21,West,279,3.0,6.0,60,0.00,,,0.00,Wunderground v.1.15,2013-01-20 18:59:00,
2013-01-20 14:04:00,53.0,39.0,30.21,North,355,1.0,7.0,59,0.00,,,0.00,Wunderground v.1.15,2013-01-20 19:04:00,
2013-01-20 14:09:00,53.2,39.2,30.21,WNW,297,1.0,7.0,59,0.00,,,0.00,Wunderground v.1.15,2013-01-20 19:09:00,
2013-01-20 14:14:00,53.4,39.0,30.20,WSW,257,0.0,3.0,58,0.00,,,0.00,Wunderground v.1.15,2013-01-20 19:14:00,
2013-01-20 14:19:00,53.6,39.2,30.20,NNE,27,1.0,5.0,58,0.00,,,0.00,Wunderground v.1.15,2013-01-20 19:19:00,
2013-01-20 14:24:00,53.7,38.8,30.21,West,263,1.0,4.0,57,0.00,,,0.00,Wunderground v.1.15,2013-01-20 19:24:00,
2013-01-20 14:29:00,53.8,38.9,30.20,NE,48,2.0,4.0,57,0.00,,,0.00,Wunderground v.1.15,2013-01-20 19:29:00,
2013-01-20 14:34:00,54.0,39.1,30.20,ENE,69,1.0,4.0,57,0.00,,,0.00,Wunderground v.1.15,2013-01-20 19:34:00,
2013-01-20 14:39:00,54.0,38.6,30.20,North,355,3.0,4.0,56,0.00,,,0.00,Wunderground v.1.15,2013-01-20 19:39:00,
2013-01-20 14:44:00,54.0,38.6,30.20,NNE,14,0.0,7.0,56,0.00,,,0.00,Wunderground v.1.15,2013-01-20 19:44:00,
2013-01-20 14:49:00,53.9,38.1,30.19,NNE,29,4.0,4.0,55,0.00,,,0.00,Wunderground v.1.15,2013-01-20 19:49:00,
2013-01-20 14:54:00,53.9,38.1,30.20,SSW,200,0.0,6.0,55,0.00,,,0.00,Wunderground v.1.15,2013-01-20 19:54:00,
2013-01-20 14:59:00,53.9,38.1,30.19,SSW,200,0.0,6.0,55,0.00,,,0.00,Wunderground v.1.15,2013-01-20 19:59:00,
2013-01-20 15:04:00,54.0,37.7,30.19,ENE,73,3.0,10.0,54,0.00,,,0.00,Wunderground v.1.15,2013-01-20 20:04:00,
2013-01-20 15:09:00,54.0,37.7,30.19,NNE,18,1.0,10.0,54,0.00,,,0.00,Wunderground v.1.15,2013-01-20 20:09:00,
2013-01-20 15:14:00,54.0,38.2,30.19,ENE,60,1.0,3.0,55,0.00,,,0.00,Wunderground v.1.15,2013-01-20 20:14:00,
2013-01-20 15:19:00,54.0,37.7,30.19,NE,38,1.0,1.0,54,0.00,,,0.00,Wunderground v.1.15,2013-01-20 20:19:00,
2013-01-20 15:24:00,54.1,37.8,30.19,NE,36,3.0,3.0,54,0.00,,,0.00,Wunderground v.1.15,2013-01-20 20:24:00,
2013-01-20 15:29:00,54.1,37.3,30.19,North,355,2.0,5.0,53,0.00,,,0.00,Wunderground v.1.15,2013-01-20 20:29:00,
2013-01-20 15:34:00,54.1,37.8,30.19,NNE,21,3.0,7.0,54,0.00,,,0.00,Wunderground v.1.15,2013-01-20 20:34:00,
2013-01-20 15:39:00,54.0,37.7,30.19,ENE,59,3.0,5.0,54,0.00,,,0.00,Wunderground v.1.15,2013-01-20 20:39:00,
2013-01-20 15:45:00,54.0,37.2,30.19,NNE,13,6.0,7.0,53,0.00,,,0.00,Wunderground v.1.15,2013-01-20 20:45:00,
2013-01-20 15:50:00,54.0,37.7,30.19,North,5,1.0,2.0,54,0.00,,,0.00,Wunderground v.1.15,2013-01-20 20:50:00,
2013-01-20 15:55:00,54.0,37.2,30.19,ENE,61,0.0,5.0,53,0.00,,,0.00,Wunderground v.1.15,2013-01-20 20:55:00,
2013-01-20 16:00:00,53.9,37.1,30.19,North,11,3.0,3.0,53,0.00,,,0.00,Wunderground v.1.15,2013-01-20 21:00:00,
2013-01-20 16:05:00,53.7,36.5,30.19,NNE,12,1.0,11.0,52,0.00,,,0.00,Wunderground v.1.15,2013-01-20 21:05:00,
2013-01-20 16:10:00,53.6,36.9,30.20,NE,38,2.0,3.0,53,0.00,,,0.00,Wunderground v.1.15,2013-01-20 21:10:00,
2013-01-20 16:15:00,53.5,37.3,30.20,WNW,285,1.0,6.0,54,0.00,,,0.00,Wunderground v.1.15,2013-01-20 21:15:00,
2013-01-20 16:20:00,53.5,36.8,30.20,NW,309,1.0,2.0,53,0.00,,,0.00,Wunderground v.1.15,2013-01-20 21:20:00,
2013-01-20 16:25:00,53.3,37.1,30.20,NE,52,1.0,5.0,54,0.00,,,0.00,Wunderground v.1.15,2013-01-20 21:25:00,
2013-01-20 16:30:00,53.1,36.4,30.21,NE,40,1.0,3.0,53,0.00,,,0.00,Wunderground v.1.15,2013-01-20 21:30:00,
2013-01-20 16:35:00,52.9,36.2,30.21,North,9,3.0,9.0,53,0.00,,,0.00,Wunderground v.1.15,2013-01-20 21:35:00,
2013-01-20 16:40:00,52.7,36.0,30.21,NNE,28,0.0,4.0,53,0.00,,,0.00,Wunderground v.1.15,2013-01-20 21:40:00,
2013-01-20 16:45:00,52.6,36.4,30.22,NNE,33,2.0,5.0,54,0.00,,,0.00,Wunderground v.1.15,2013-01-20 21:45:00,
2013-01-20 16:50:00,52.5,36.3,30.21,North,355,1.0,2.0,54,0.00,,,0.00,Wunderground v.1.15,2013-01-20 21:50:00,
2013-01-20 16:55:00,52.4,35.8,30.22,NNE,12,1.0,4.0,53,0.00,,,0.00,Wunderground v.1.15,2013-01-20 21:55:00,
2013-01-20 17:00:00,52.2,35.6,30.22,NE,38,1.0,3.0,53,0.00,,,0.00,Wunderground v.1.15,2013-01-20 22:00:00,
2013-01-20 17:05:00,52.0,35.4,30.22,NE,38,1.0,9.0,53,0.00,,,0.00,Wunderground v.1.15,2013-01-20 22:05:00,
2013-01-20 17:10:00,51.8,35.7,30.22,WSW,252,0.0,2.0,54,0.00,,,0.00,Wunderground v.1.15,2013-01-20 22:10:00,
2013-01-20 17:15:00,51.5,35.9,30.22,NNW,331,1.0,3.0,55,0.00,,,0.00,Wunderground v.1.15,2013-01-20 22:15:00,
2013-01-20 17:20:00,51.3,35.7,30.22,NNE,27,3.0,3.0,55,0.00,,,0.00,Wunderground v.1.15,2013-01-20 22:20:00,
2013-01-20 17:25:00,51.0,35.4,30.22,WNW,290,0.0,3.0,55,0.00,,,0.00,Wunderground v.1.15,2013-01-20 22:25:00,
2013-01-20 17:30:00,50.8,35.7,30.22,North,5,1.0,1.0,56,0.00,,,0.00,Wunderground v.1.15,2013-01-20 22:30:00,
2013-01-20 17:35:00,50.4,35.7,30.22,North,5,0.0,4.0,57,0.00,,,0.00,Wunderground v.1.15,2013-01-20 22:35:00,
2013-01-20 17:40:00,50.1,35.9,30.23,North,5,1.0,5.0,58,0.00,,,0.00,Wunderground v.1.15,2013-01-20 22:40:00,
2013-01-20 17:45:00,49.8,35.6,30.23,NNE,20,5.0,5.0,58,0.00,,,0.00,Wunderground v.1.15,2013-01-20 22:45:00,
2013-01-20 17:50:00,49.5,35.3,30.23,North,5,0.0,1.0,58,0.00,,,0.00,Wunderground v.1.15,2013-01-20 22:50:00,
2013-01-20 17:55:00,49.3,35.1,30.23,NNE,27,0.0,1.0,58,0.00,,,0.00,Wunderground v.1.15,2013-01-20 22:55:00,
2013-01-20 18:00:00,49.0,35.3,30.24,NNE,26,0.0,0.0,59,0.00,,,0.00,Wunderground v.1.15,2013-01-20 23:00:00,
2013-01-20 18:05:00,48.7,35.0,30.24,North,355,0.0,9.0,59,0.00,,,0.00,Wunderground v.1.15,2013-01-20 23:05:00,
2013-01-20 18:10:00,48.5,35.2,30.24,NNW,340,1.0,1.0,60,0.00,,,0.00,Wunderground v.1.15,2013-01-20 23:10:00,
2013-01-20 18:15:00,48.1,35.3,30.24,NNW,339,0.0,2.0,61,0.00,,,0.00,Wunderground v.1.15,2013-01-20 23:15:00,
2013-01-20 18:20:00,47.8,35.4,30.24,NNW,339,0.0,1.0,62,0.00,,,0.00,Wunderground v.1.15,2013-01-20 23:20:00,
2013-01-20 18:25:00,47.5,35.5,30.24,NNW,339,1.0,1.0,63,0.00,,,0.00,Wunderground v.1.15,2013-01-20 23:25:00,
2013-01-20 18:30:00,47.2,35.2,30.24,NNW,339,0.0,1.0,63,0.00,,,0.00,Wunderground v.1.15,2013-01-20 23:30:00,
2013-01-20 18:35:00,46.9,35.4,30.24,NNW,339,0.0,1.0,64,0.00,,,0.00,Wunderground v.1.15,2013-01-20 23:35:00,
2013-01-20 18:40:00,46.6,35.1,30.24,NNW,348,2.0,2.0,64,0.00,,,0.00,Wunderground v.1.15,2013-01-20 23:40:00,
2013-01-20 18:45:00,46.4,34.9,30.24,NNW,348,0.0,2.0,64,0.00,,,0.00,Wunderground v.1.15,2013-01-20 23:45:00,
2013-01-20 18:50:00,46.1,35.0,30.24,NNW,348,0.0,0.0,65,0.00,,,0.00,Wunderground v.1.15,2013-01-20 23:50:00,
2013-01-20 18:55:00,45.8,34.7,30.24,NNW,348,2.0,2.0,65,0.00,,,0.00,Wunderground v.1.15,2013-01-20 23:55:00,
2013-01-20 19:00:00,45.4,35.1,30.24,NNW,348,1.0,1.0,67,0.00,,,0.00,Wunderground v.1.15,2013-01-21 00:00:00,
2013-01-20 19:05:00,44.9,35.0,30.24,NNW,348,0.0,1.0,68,0.00,,,0.00,Wunderground v.1.15,2013-01-21 00:05:00,
2013-01-20 19:10:00,44.6,35.1,30.25,NNW,348,0.0,1.0,69,0.00,,,0.00,Wunderground v.1.15,2013-01-21 00:10:00,
2013-01-20 19:15:00,44.3,34.8,30.25,NNW,348,0.0,2.0,69,0.00,,,0.00,Wunderground v.1.15,2013-01-21 00:15:00,
2013-01-20 19:20:00,44.0,34.5,30.25,NNW,348,0.0,1.0,69,0.00,,,0.00,Wunderground v.1.15,2013-01-21 00:20:00,
2013-01-20 19:25:00,43.7,34.6,30.25,NNW,348,0.0,1.0,70,0.00,,,0.00,Wunderground v.1.15,2013-01-21 00:25:00,
2013-01-20 19:30:00,43.4,34.3,30.25,NNW,348,0.0,0.0,70,0.00,,,0.00,Wunderground v.1.15,2013-01-21 00:30:00,
2013-01-20 19:36:00,43.1,34.3,30.24,NNW,348,0.0,1.0,71,0.00,,,0.00,Wunderground v.1.15,2013-01-21 00:36:00,
2013-01-20 19:41:00,42.8,34.7,30.25,NNW,348,0.0,0.0,73,0.00,,,0.00,Wunderground v.1.15,2013-01-21 00:41:00,
2013-01-20 19:46:00,42.4,34.4,30.25,NNW,348,0.0,0.0,73,0.00,,,0.00,Wunderground v.1.15,2013-01-21 00:46:00,
2013-01-20 19:51:00,42.0,33.6,30.25,NNW,348,0.0,0.0,72,0.00,,,0.00,Wunderground v.1.15,2013-01-21 00:51:00,
2013-01-20 19:56:00,41.8,33.8,30.25,NNW,348,0.0,0.0,73,0.00,,,0.00,Wunderground v.1.15,2013-01-21 00:56:00,
2013-01-20 20:01:00,41.7,33.7,30.25,NNW,348,0.0,0.0,73,0.00,,,0.00,Wunderground v.1.15,2013-01-21 01:01:00,
2013-01-20 20:06:00,41.6,33.6,30.25,NNW,348,0.0,0.0,73,0.00,,,0.00,Wunderground v.1.15,2013-01-21 01:06:00,
2013-01-20 20:11:00,41.5,33.5,30.25,NNW,348,0.0,0.0,73,0.00,,,0.00,Wunderground v.1.15,2013-01-21 01:11:00,
2013-01-20 20:16:00,41.5,33.5,30.25,ENE,58,0.0,3.0,73,0.00,,,0.00,Wunderground v.1.15,2013-01-21 01:16:00,
2013-01-20 20:21:00,41.4,33.7,30.25,ENE,58,0.0,0.0,74,0.00,,,0.00,Wunderground v.1.15,2013-01-21 01:21:00,
2013-01-20 20:26:00,41.1,33.4,30.25,ENE,58,0.0,1.0,74,0.00,,,0.00,Wunderground v.1.15,2013-01-21 01:26:00,
2013-01-20 20:31:00,40.8,33.5,30.25,ENE,58,0.0,0.0,75,0.00,,,0.00,Wunderground v.1.15,2013-01-21 01:31:00,
2013-01-20 20:36:00,40.2,33.6,30.25,ENE,58,0.0,1.0,77,0.00,,,0.00,Wunderground v.1.15,2013-01-21 01:36:00,
2013-01-20 20:41:00,39.8,33.2,30.25,ENE,58,0.0,0.0,77,0.00,,,0.00,Wunderground v.1.15,2013-01-21 01:41:00,
2013-01-20 20:46:00,39.5,32.6,30.25,ENE,58,0.0,1.0,76,0.00,,,0.00,Wunderground v.1.15,2013-01-21 01:46:00,
2013-01-20 20:51:00,39.6,33.0,30.25,ENE,58,0.0,1.0,77,0.00,,,0.00,Wunderground v.1.15,2013-01-21 01:51:00,
2013-01-20 20:56:00,39.7,32.8,30.25,ENE,58,0.0,1.0,76,0.00,,,0.00,Wunderground v.1.15,2013-01-21 01:56:00,
2013-01-20 21:01:00,40.0,33.0,30.25,ENE,58,0.0,0.0,76,0.00,,,0.00,Wunderground v.1.15,2013-01-21 02:01:00,
2013-01-20 21:06:00,40.1,33.1,30.25,ENE,58,0.0,1.0,76,0.00,,,0.00,Wunderground v.1.15,2013-01-21 02:06:00,
2013-01-20 21:11:00,40.2,32.9,30.25,ENE,58,0.0,1.0,75,0.00,,,0.00,Wunderground v.1.15,2013-01-21 02:11:00,
2013-01-20 21:16:00,40.4,32.8,30.25,ENE,58,0.0,1.0,74,0.00,,,0.00,Wunderground v.1.15,2013-01-21 02:16:00,
2013-01-20 21:22:00,40.5,32.9,30.25,ENE,58,0.0,1.0,74,0.00,,,0.00,Wunderground v.1.15,2013-01-21 02:22:00,
2013-01-20 21:27:00,40.6,33.0,30.24,ENE,58,0.0,1.0,74,0.00,,,0.00,Wunderground v.1.15,2013-01-21 02:27:00,
2013-01-20 21:32:00,40.5,32.9,30.25,ENE,58,0.0,0.0,74,0.00,,,0.00,Wunderground v.1.15,2013-01-21 02:32:00,
2013-01-20 21:37:00,40.4,32.8,30.25,ENE,58,0.0,0.0,74,0.00,,,0.00,Wunderground v.1.15,2013-01-21 02:37:00,
2013-01-20 21:42:00,40.2,32.6,30.25,ENE,58,0.0,0.0,74,0.00,,,0.00,Wunderground v.1.15,2013-01-21 02:42:00,
2013-01-20 21:47:00,40.0,32.7,30.25,ENE,58,0.0,0.0,75,0.00,,,0.00,Wunderground v.1.15,2013-01-21 02:47:00,
2013-01-20 21:52:00,39.7,32.4,30.26,ENE,58,0.0,0.0,75,0.00,,,0.00,Wunderground v.1.15,2013-01-21 02:52:00,
2013-01-20 21:57:00,39.3,32.4,30.26,ENE,58,0.0,0.0,76,0.00,,,0.00,Wunderground v.1.15,2013-01-21 02:57:00,
2013-01-20 22:02:00,39.0,32.4,30.26,ENE,58,0.0,0.0,77,0.00,,,0.00,Wunderground v.1.15,2013-01-21 03:02:00,
2013-01-20 22:07:00,38.7,32.1,30.26,ENE,58,0.0,0.0,77,0.00,,,0.00,Wunderground v.1.15,2013-01-21 03:07:00,
2013-01-20 22:12:00,38.3,32.0,30.25,ENE,58,0.0,0.0,78,0.00,,,0.00,Wunderground v.1.15,2013-01-21 03:12:00,
2013-01-20 22:17:00,38.0,32.1,30.25,ENE,58,0.0,0.0,79,0.00,,,0.00,Wunderground v.1.15,2013-01-21 03:17:00,
2013-01-20 22:23:00,37.6,31.7,30.26,ENE,58,0.0,0.0,79,0.00,,,0.00,Wunderground v.1.15,2013-01-21 03:23:00,
2013-01-20 22:28:00,37.3,31.7,30.26,ENE,58,0.0,0.0,80,0.00,,,0.00,Wunderground v.1.15,2013-01-21 03:28:00,
2013-01-20 22:33:00,37.0,31.4,30.25,ENE,58,0.0,0.0,80,0.00,,,0.00,Wunderground v.1.15,2013-01-21 03:33:00,
2013-01-20 22:38:00,36.7,31.4,30.25,ENE,58,0.0,0.0,81,0.00,,,0.00,Wunderground v.1.15,2013-01-21 03:38:00,
2013-01-20 22:43:00,36.4,31.4,30.25,ENE,58,0.0,0.0,82,0.00,,,0.00,Wunderground v.1.15,2013-01-21 03:43:00,
2013-01-20 22:48:00,36.1,31.4,30.25,ENE,58,0.0,1.0,83,0.00,,,0.00,Wunderground v.1.15,2013-01-21 03:48:00,
2013-01-20 22:53:00,35.8,31.7,30.25,ENE,58,0.0,1.0,85,0.00,,,0.00,Wunderground v.1.15,2013-01-21 03:53:00,
2013-01-20 22:58:00,35.5,31.4,30.25,ENE,58,0.0,1.0,85,0.00,,,0.00,Wunderground v.1.15,2013-01-21 03:58:00,
2013-01-20 23:03:00,35.2,31.4,30.25,ENE,58,0.0,0.0,86,0.00,,,0.00,Wunderground v.1.15,2013-01-21 04:03:00,
2013-01-20 23:08:00,35.0,31.5,30.25,ENE,58,0.0,1.0,87,0.00,,,0.00,Wunderground v.1.15,2013-01-21 04:08:00,
2013-01-20 23:13:00,34.8,31.3,30.25,ENE,58,0.0,0.0,87,0.00,,,0.00,Wunderground v.1.15,2013-01-21 04:13:00,
2013-01-20 23:18:00,34.6,31.1,30.25,ENE,58,0.0,0.0,87,0.00,,,0.00,Wunderground v.1.15,2013-01-21 04:18:00,
2013-01-20 23:23:00,34.3,31.1,30.25,ENE,58,0.0,0.0,88,0.00,,,0.00,Wunderground v.1.15,2013-01-21 04:23:00,
2013-01-20 23:28:00,34.2,31.0,30.25,ENE,58,0.0,1.0,88,0.00,,,0.00,Wunderground v.1.15,2013-01-21 04:28:00,
2013-01-20 23:33:00,34.2,31.0,30.24,ENE,58,0.0,1.0,88,0.00,,,0.00,Wunderground v.1.15,2013-01-21 04:33:00,
2013-01-20 23:38:00,34.1,31.2,30.24,ENE,58,0.0,1.0,89,0.00,,,0.00,Wunderground v.1.15,2013-01-21 04:38:00,
2013-01-20 23:43:00,33.9,30.7,30.24,ENE,58,1.0,1.0,88,0.00,,,0.00,Wunderground v.1.15,2013-01-21 04:43:00,
2013-01-20 23:48:00,33.7,30.8,30.24,SSE,157,1.0,5.0,89,0.00,,,0.00,Wunderground v.1.15,2013-01-21 04:48:00,
2013-01-20 23:53:00,33.7,30.5,30.24,SSE,152,0.0,1.0,88,0.00,,,0.00,Wunderground v.1.15,2013-01-21 04:53:00,
2013-01-20 23:58:00,33.5,30.3,30.24,SSE,152,0.0,1.0,88,0.00,,,0.00,Wunderground v.1.15,2013-01-21 04:58:00,